Time;durP1;ratioP1;P1;durP2;ratioP2;P2;SDS_P1;SDS_P2;PMS_P1;PMS_P2;Temp;Humidity;BMP_temperature;BMP_pressure;BME280_temperature;BME280_humidity;BME280_pressure;Samples;Min_cycle;Max_cycle;Signal;HPM_P1;HPM_P2
2022/09/13 00:01:20;;;;;;;18.65;12.82;;;;;;;;;;5033921;28;20410;-64
2022/09/13 00:03:46;;;;;;;20.15;12.88;;;;;;;;;;5031852;28;20045;-64
2022/09/13 00:06:17;;;;;;;18.73;12.95;;;;;;;;;;5032725;28;20433;-64
2022/09/13 00:08:44;;;;;;;19.77;13.40;;;;;;;;;;5036070;28;20119;-64
2022/09/13 00:11:17;;;;;;;19.55;12.85;;;;;;;;;;5032436;28;20049;-64
2022/09/13 00:13:43;;;;;;;19.50;12.50;;;;;;;;;;5031633;28;20057;-65
2022/09/13 00:16:11;;;;;;;17.02;13.15;;;;;;;;;;5034208;28;20036;-65
2022/09/13 00:18:37;;;;;;;31.17;13.38;;;;;;;;;;5031590;28;20703;-65
2022/09/13 00:21:04;;;;;;;17.52;12.32;;;;;;;;;;5036280;28;20507;-65
2022/09/13 00:23:30;;;;;;;20.40;12.55;;;;;;;;;;5032328;28;20049;-64
2022/09/13 00:26:10;;;;;;;17.95;11.35;;;;;;;;;;5037330;28;20048;-64
2022/09/13 00:28:36;;;;;;;15.03;11.10;;;;;;;;;;5024968;28;20403;-64
2022/09/13 00:31:03;;;;;;;17.75;12.20;;;;;;;;;;5036952;28;20490;-64
2022/09/13 00:33:29;;;;;;;16.73;11.50;;;;;;;;;;5031184;28;20120;-64
2022/09/13 00:35:56;;;;;;;17.08;12.25;;;;;;;;;;5032041;28;20044;-64
2022/09/13 00:38:22;;;;;;;16.58;12.40;;;;;;;;;;5032471;28;20246;-64
2022/09/13 00:40:48;;;;;;;15.68;12.07;;;;;;;;;;5032253;28;20514;-64
2022/09/13 00:43:18;;;;;;;16.05;11.88;;;;;;;;;;5036549;28;20045;-64
2022/09/13 00:45:44;;;;;;;16.98;12.32;;;;;;;;;;5027739;28;20538;-64
2022/09/13 00:48:17;;;;;;;17.38;12.13;;;;;;;;;;5026089;28;20495;-64
2022/09/13 00:50:45;;;;;;;18.27;11.98;;;;;;;;;;5033696;28;20092;-65
2022/09/13 00:53:16;;;;;;;14.98;11.45;;;;;;;;;;5031121;28;20051;-64
2022/09/13 00:55:42;;;;;;;14.98;10.75;;;;;;;;;;5032111;28;20068;-65
2022/09/13 00:58:11;;;;;;;18.42;11.50;;;;;;;;;;5033949;28;20045;-64
2022/09/13 01:00:38;;;;;;;17.02;11.98;;;;;;;;;;5030130;28;20052;-64
2022/09/13 01:03:06;;;;;;;18.27;11.73;;;;;;;;;;5029638;28;20511;-65
2022/09/13 01:05:34;;;;;;;20.98;13.10;;;;;;;;;;5030108;28;20495;-65
2022/09/13 01:08:00;;;;;;;15.52;10.98;;;;;;;;;;5041801;28;20104;-64
2022/09/13 01:10:27;;;;;;;16.20;11.57;;;;;;;;;;5032433;28;20045;-64
2022/09/13 01:13:00;;;;;;;15.77;12.05;;;;;;;;;;5031626;28;20550;-65
2022/09/13 01:15:26;;;;;;;15.30;11.05;;;;;;;;;;5032774;28;20050;-64
2022/09/13 01:17:53;;;;;;;18.10;12.30;;;;;;;;;;5030268;28;20034;-64
2022/09/13 01:20:20;;;;;;;18.00;10.68;;;;;;;;;;5031051;28;20041;-65
2022/09/13 01:22:49;;;;;;;19.00;11.93;;;;;;;;;;5030346;28;20552;-64
2022/09/13 01:25:33;;;;;;;17.40;11.95;;;;;;;;;;5034384;28;20071;-64
2022/09/13 01:28:17;;;;;;;15.77;12.30;;;;;;;;;;5030946;28;20041;-64
2022/09/13 01:31:06;;;;;;;19.63;12.10;;;;;;;;;;5025311;28;20069;-65
2022/09/13 01:33:59;;;;;;;15.20;10.82;;;;;;;;;;5023309;28;20041;-64
2022/09/13 01:36:41;;;;;;;15.13;10.95;;;;;;;;;;5027932;28;20425;-64
2022/09/13 01:39:10;;;;;;;13.85;10.68;;;;;;;;;;5030445;28;20116;-64
2022/09/13 01:41:36;;;;;;;16.13;11.88;;;;;;;;;;5031875;28;20049;-64
2022/09/13 01:44:11;;;;;;;15.38;11.95;;;;;;;;;;5031025;28;20494;-64
2022/09/13 01:46:48;;;;;;;16.77;11.68;;;;;;;;;;5033660;28;20099;-64
2022/09/13 01:49:25;;;;;;;15.88;11.63;;;;;;;;;;5030619;28;20050;-64
2022/09/13 01:51:56;;;;;;;17.35;12.23;;;;;;;;;;5028041;28;20129;-64
2022/09/13 01:54:38;;;;;;;14.00;10.38;;;;;;;;;;5031282;28;20410;-64
2022/09/13 01:57:19;;;;;;;17.80;12.93;;;;;;;;;;5026300;28;20394;-65
2022/09/13 01:59:53;;;;;;;16.70;12.45;;;;;;;;;;5031414;28;20081;-64
2022/09/13 02:02:28;;;;;;;16.33;11.30;;;;;;;;;;5026998;28;20044;-65
2022/09/13 02:05:14;;;;;;;18.67;11.90;;;;;;;;;;5028013;28;20041;-64
2022/09/13 02:07:42;;;;;;;16.70;12.38;;;;;;;;;;5015259;28;20056;-64
2022/09/13 02:10:22;;;;;;;20.58;13.68;;;;;;;;;;5033403;28;20135;-65
2022/09/13 02:12:49;;;;;;;19.67;13.35;;;;;;;;;;5029371;28;20144;-65
2022/09/13 02:15:21;;;;;;;19.90;13.77;;;;;;;;;;5033120;28;20072;-64
2022/09/13 02:17:50;;;;;;;19.38;14.15;;;;;;;;;;5030803;28;20541;-64
2022/09/13 02:20:16;;;;;;;22.10;13.98;;;;;;;;;;5026981;28;20055;-64
2022/09/13 02:22:45;;;;;;;22.13;14.93;;;;;;;;;;5037222;28;20037;-64
2022/09/13 02:25:16;;;;;;;20.40;14.35;;;;;;;;;;5030722;28;20102;-64
2022/09/13 02:27:44;;;;;;;22.25;14.65;;;;;;;;;;5032598;28;20038;-64
2022/09/13 02:30:11;;;;;;;19.83;14.20;;;;;;;;;;5027469;28;20411;-63
2022/09/13 02:32:37;;;;;;;21.67;15.80;;;;;;;;;;5034264;28;20041;-64
2022/09/13 02:35:06;;;;;;;19.85;14.15;;;;;;;;;;5033425;28;20040;-64
2022/09/13 02:37:34;;;;;;;22.10;15.68;;;;;;;;;;5027965;28;20037;-64
2022/09/13 02:40:03;;;;;;;24.45;16.27;;;;;;;;;;5028481;28;20038;-64
2022/09/13 02:42:34;;;;;;;23.92;15.77;;;;;;;;;;5032336;28;20045;-64
2022/09/13 02:45:01;;;;;;;21.90;15.48;;;;;;;;;;5033850;28;20044;-64
2022/09/13 02:47:34;;;;;;;24.73;15.02;;;;;;;;;;5033508;28;20095;-64
2022/09/13 02:50:12;;;;;;;22.23;15.07;;;;;;;;;;5028732;28;20120;-64
2022/09/13 02:52:57;;;;;;;22.63;15.65;;;;;;;;;;5027710;28;20045;-64
2022/09/13 02:55:24;;;;;;;23.00;16.00;;;;;;;;;;5034893;28;20065;-64
2022/09/13 02:57:50;;;;;;;21.15;14.77;;;;;;;;;;5031931;28;20042;-64
2022/09/13 03:00:16;;;;;;;20.80;14.82;;;;;;;;;;5033212;28;20041;-64
2022/09/13 03:02:43;;;;;;;22.63;15.70;;;;;;;;;;5033504;28;20071;-64
2022/09/13 03:05:10;;;;;;;23.10;15.52;;;;;;;;;;5034601;28;20037;-64
2022/09/13 03:07:36;;;;;;;24.67;16.63;;;;;;;;;;5032685;28;20057;-64
2022/09/13 03:10:04;;;;;;;23.85;16.52;;;;;;;;;;5031495;28;20045;-64
2022/09/13 03:12:30;;;;;;;22.70;16.58;;;;;;;;;;5030987;28;20042;-64
2022/09/13 03:14:56;;;;;;;25.40;17.95;;;;;;;;;;5029043;28;22120;-64
2022/09/13 03:17:46;;;;;;;27.70;17.30;;;;;;;;;;5039539;28;20064;-64
2022/09/13 03:20:12;;;;;;;25.23;17.23;;;;;;;;;;5030811;28;20045;-64
2022/09/13 03:22:57;;;;;;;27.13;17.80;;;;;;;;;;5030973;28;20103;-65
2022/09/13 03:25:26;;;;;;;28.13;18.17;;;;;;;;;;5031564;28;20037;-64
2022/09/13 03:28:02;;;;;;;26.90;18.55;;;;;;;;;;5037272;28;20049;-64
2022/09/13 03:30:28;;;;;;;25.27;17.70;;;;;;;;;;5033197;28;20038;-64
2022/09/13 03:33:19;;;;;;;24.80;16.98;;;;;;;;;;5032238;28;20514;-64
2022/09/13 03:35:53;;;;;;;27.98;18.55;;;;;;;;;;5031843;28;20037;-64
2022/09/13 03:38:24;;;;;;;29.02;18.50;;;;;;;;;;5034619;28;20064;-64
2022/09/13 03:40:50;;;;;;;;;;;;;;;;;;5034532;28;20049;-64
2022/09/13 03:43:34;;;;;;;27.20;17.83;;;;;;;;;;5030508;28;19917;-64
2022/09/13 03:46:02;;;;;;;27.13;17.23;;;;;;;;;;5030663;28;20459;-64
2022/09/13 03:48:29;;;;;;;28.65;17.85;;;;;;;;;;5032963;28;20053;-64
2022/09/13 03:50:55;;;;;;;27.40;17.80;;;;;;;;;;5037918;28;20038;-64
2022/09/13 03:53:24;;;;;;;28.27;17.80;;;;;;;;;;5036899;28;20042;-64
2022/09/13 03:55:51;;;;;;;25.17;17.63;;;;;;;;;;5029780;28;20051;-64
2022/09/13 03:58:18;;;;;;;26.33;17.25;;;;;;;;;;5029014;28;20094;-64
2022/09/13 04:00:44;;;;;;;26.25;17.88;;;;;;;;;;5037178;28;20090;-64
2022/09/13 04:03:11;;;;;;;26.58;17.73;;;;;;;;;;5034227;28;20164;-64
2022/09/13 04:05:37;;;;;;;27.00;17.83;;;;;;;;;;5041873;28;20048;-64
2022/09/13 04:08:04;;;;;;;29.55;18.30;;;;;;;;;;5035757;28;20041;-63
2022/09/13 04:10:31;;;;;;;29.90;17.60;;;;;;;;;;5028338;28;20041;-65
2022/09/13 04:12:59;;;;;;;26.55;17.95;;;;;;;;;;5030764;28;20586;-64
2022/09/13 04:15:25;;;;;;;24.67;18.38;;;;;;;;;;5030090;28;20129;-64
2022/09/13 04:17:51;;;;;;;27.98;18.75;;;;;;;;;;5040076;28;20037;-64
2022/09/13 04:20:19;;;;;;;25.58;17.55;;;;;;;;;;5031318;28;20410;-64
2022/09/13 04:22:50;;;;;;;27.73;18.67;;;;;;;;;;5034454;28;20052;-64
2022/09/13 04:25:16;;;;;;;26.25;18.30;;;;;;;;;;5032874;28;20038;-64
2022/09/13 04:27:42;;;;;;;26.00;17.92;;;;;;;;;;5030856;28;20127;-64
2022/09/13 04:30:08;;;;;;;28.10;18.77;;;;;;;;;;5029440;28;20091;-64
2022/09/13 04:32:34;;;;;;;25.73;17.45;;;;;;;;;;5040670;28;20053;-64
2022/09/13 04:35:00;;;;;;;27.10;18.00;;;;;;;;;;5034641;28;20044;-64
2022/09/13 04:37:26;;;;;;;27.05;18.58;;;;;;;;;;5029166;28;20446;-64
2022/09/13 04:39:52;;;;;;;30.83;19.58;;;;;;;;;;5030621;28;20038;-64
2022/09/13 04:42:18;;;;;;;30.48;19.27;;;;;;;;;;5029380;28;20033;-64
2022/09/13 04:44:44;;;;;;;28.63;19.35;;;;;;;;;;5032398;28;20049;-64
2022/09/13 04:47:10;;;;;;;27.85;19.42;;;;;;;;;;5035913;28;20068;-64
2022/09/13 04:49:36;;;;;;;29.90;20.10;;;;;;;;;;5026809;28;20498;-65
2022/09/13 04:52:03;;;;;;;30.65;20.48;;;;;;;;;;5030668;28;20450;-64
2022/09/13 04:54:30;;;;;;;29.75;19.45;;;;;;;;;;5029564;28;20510;-64
2022/09/13 04:56:56;;;;;;;29.45;19.40;;;;;;;;;;5045188;22;20053;-64
2022/09/13 04:59:22;;;;;;;28.10;18.13;;;;;;;;;;5048108;28;20048;-64
2022/09/13 05:01:48;;;;;;;29.40;19.10;;;;;;;;;;5046281;28;20486;-64
2022/09/13 05:04:14;;;;;;;33.15;19.48;;;;;;;;;;5044435;28;20098;-64
2022/09/13 05:06:40;;;;;;;29.67;20.02;;;;;;;;;;5049880;28;20044;-65
2022/09/13 05:09:06;;;;;;;29.98;19.90;;;;;;;;;;5049239;28;20040;-64
2022/09/13 05:11:32;;;;;;;28.15;19.60;;;;;;;;;;5050427;28;20094;-64
2022/09/13 05:14:00;;;;;;;29.67;19.52;;;;;;;;;;5049029;28;20505;-64
2022/09/13 05:16:27;;;;;;;29.50;19.52;;;;;;;;;;5047618;28;20044;-65
2022/09/13 05:18:53;;;;;;;35.00;20.17;;;;;;;;;;5050264;28;20045;-64
2022/09/13 05:21:20;;;;;;;31.38;19.20;;;;;;;;;;5040822;28;20065;-64
2022/09/13 05:23:50;;;;;;;26.08;18.40;;;;;;;;;;5049197;28;20045;-64
2022/09/13 05:26:16;;;;;;;30.07;18.00;;;;;;;;;;5049154;28;20071;-64
2022/09/13 05:28:42;;;;;;;29.58;18.92;;;;;;;;;;5043580;28;20043;-65
2022/09/13 05:31:16;;;;;;;29.15;19.40;;;;;;;;;;5049694;28;20053;-64
2022/09/13 05:33:43;;;;;;;27.42;17.65;;;;;;;;;;5049222;28;20395;-64
2022/09/13 05:36:09;;;;;;;24.27;16.92;;;;;;;;;;5047212;28;20037;-64
2022/09/13 05:38:35;;;;;;;28.02;17.50;;;;;;;;;;5046098;28;20395;-65
2022/09/13 05:41:02;;;;;;;25.10;17.30;;;;;;;;;;5049380;28;20047;-64
2022/09/13 05:43:30;;;;;;;24.83;16.77;;;;;;;;;;5048734;28;20052;-64
2022/09/13 05:46:01;;;;;;;23.65;16.83;;;;;;;;;;5046214;28;20033;-65
2022/09/13 05:48:28;;;;;;;23.88;16.40;;;;;;;;;;5039420;28;20036;-64
2022/09/13 05:50:54;;;;;;;24.85;17.13;;;;;;;;;;5050106;28;20053;-64
2022/09/13 05:53:20;;;;;;;24.73;14.95;;;;;;;;;;5047124;28;20044;-64
2022/09/13 05:55:46;;;;;;;27.50;16.25;;;;;;;;;;5037537;28;20487;-65
2022/09/13 05:58:12;;;;;;;22.67;15.50;;;;;;;;;;5038482;28;20049;-64
2022/09/13 06:00:38;;;;;;;24.75;14.75;;;;;;;;;;5047690;28;20498;-65
2022/09/13 06:03:04;;;;;;;23.23;15.43;;;;;;;;;;5042787;28;20128;-65
2022/09/13 06:05:30;;;;;;;22.00;14.07;;;;;;;;;;5047146;28;20051;-64
2022/09/13 06:07:56;;;;;;;20.45;13.43;;;;;;;;;;5049124;28;20040;-64
2022/09/13 06:10:22;;;;;;;23.75;13.57;;;;;;;;;;5048723;28;20479;-64
2022/09/13 06:12:50;;;;;;;18.98;13.52;;;;;;;;;;5048405;28;20043;-64
2022/09/13 06:15:16;;;;;;;21.75;13.68;;;;;;;;;;5048292;28;20112;-64
2022/09/13 06:17:42;;;;;;;19.38;12.95;;;;;;;;;;5042201;28;20541;-64
2022/09/13 06:20:09;;;;;;;18.20;12.50;;;;;;;;;;5050249;28;20116;-64
2022/09/13 06:22:35;;;;;;;16.20;12.25;;;;;;;;;;5041212;28;20079;-64
2022/09/13 06:25:01;;;;;;;18.15;12.57;;;;;;;;;;5036114;28;20041;-64
2022/09/13 06:27:29;;;;;;;18.67;12.48;;;;;;;;;;5043782;28;20062;-64
2022/09/13 06:29:55;;;;;;;17.33;12.15;;;;;;;;;;5040963;28;20037;-64
2022/09/13 06:32:21;;;;;;;17.67;12.05;;;;;;;;;;5042614;28;20133;-64
2022/09/13 06:34:47;;;;;;;19.33;12.68;;;;;;;;;;5044845;28;20119;-64
2022/09/13 06:37:13;;;;;;;17.80;11.90;;;;;;;;;;5046172;28;20382;-64
2022/09/13 06:39:40;;;;;;;16.67;12.10;;;;;;;;;;5047482;28;20094;-65
2022/09/13 06:42:06;;;;;;;16.83;11.57;;;;;;;;;;5050694;28;20453;-64
2022/09/13 06:44:32;;;;;;;12.80;8.98;;;;;;;;;;5045991;28;20041;-64
2022/09/13 06:46:58;;;;;;;17.80;9.68;;;;;;;;;;5043077;28;20036;-64
2022/09/13 06:49:24;;;;;;;12.82;7.95;;;;;;;;;;5045203;28;20514;-64
2022/09/13 06:51:50;;;;;;;10.48;6.07;;;;;;;;;;5043293;28;20041;-64
2022/09/13 06:54:16;;;;;;;8.18;4.68;;;;;;;;;;5049864;28;20458;-64
2022/09/13 06:56:42;;;;;;;8.38;4.63;;;;;;;;;;5046614;28;20041;-64
2022/09/13 06:59:09;;;;;;;8.80;4.47;;;;;;;;;;5048150;28;20102;-64
2022/09/13 07:01:37;;;;;;;6.53;4.45;;;;;;;;;;5037195;28;20080;-64
2022/09/13 07:04:08;;;;;;;7.72;4.20;;;;;;;;;;5029916;28;20053;-64
2022/09/13 07:06:34;;;;;;;;;;;;;;;;;;5035685;28;20041;-64
2022/09/13 07:09:01;;;;;;;4.97;3.50;;;;;;;;;;5044735;28;19923;-64
2022/09/13 07:11:29;;;;;;;6.25;3.63;;;;;;;;;;5048583;28;20457;-64
2022/09/13 07:13:56;;;;;;;9.02;3.65;;;;;;;;;;5049636;28;20103;-64
2022/09/13 07:16:24;;;;;;;7.80;3.95;;;;;;;;;;5041079;28;20563;-64
2022/09/13 07:18:53;;;;;;;7.25;3.72;;;;;;;;;;5050118;28;20128;-64
2022/09/13 07:21:21;;;;;;;5.82;3.20;;;;;;;;;;5049322;28;20047;-64
2022/09/13 07:23:47;;;;;;;6.05;3.10;;;;;;;;;;5053348;28;20045;-64
2022/09/13 07:26:13;;;;;;;4.80;3.40;;;;;;;;;;5050176;28;20124;-64
2022/09/13 07:28:41;;;;;;;5.75;3.30;;;;;;;;;;5050576;28;20133;-64
2022/09/13 07:31:09;;;;;;;5.22;3.38;;;;;;;;;;5050157;28;20076;-64
2022/09/13 07:33:35;;;;;;;6.68;3.28;;;;;;;;;;5050243;28;20045;-64
2022/09/13 07:36:05;;;;;;;8.05;2.97;;;;;;;;;;5042685;28;20055;-64
2022/09/13 07:38:32;;;;;;;4.93;2.83;;;;;;;;;;5052362;28;20426;-64
2022/09/13 07:40:58;;;;;;;6.75;2.65;;;;;;;;;;5053701;28;20045;-64
2022/09/13 07:43:27;;;;;;;5.55;2.65;;;;;;;;;;5053326;28;20503;-64
2022/09/13 07:45:57;;;;;;;3.28;2.00;;;;;;;;;;5040783;28;20056;-64
2022/09/13 07:48:23;;;;;;;6.35;2.50;;;;;;;;;;5049557;28;21290;-65
2022/09/13 07:51:01;;;;;;;4.32;2.33;;;;;;;;;;5044128;28;20037;-64
2022/09/13 07:53:27;;;;;;;7.93;2.90;;;;;;;;;;5043834;28;20414;-64
2022/09/13 07:55:54;;;;;;;5.15;2.55;;;;;;;;;;5051978;28;20601;-64
2022/09/13 07:58:20;;;;;;;5.82;2.83;;;;;;;;;;5051231;28;20037;-64
2022/09/13 08:00:46;;;;;;;4.70;2.20;;;;;;;;;;5049013;28;20041;-64
2022/09/13 08:03:12;;;;;;;8.82;2.63;;;;;;;;;;5047786;28;20033;-64
2022/09/13 08:05:38;;;;;;;4.25;2.67;;;;;;;;;;5050977;28;20043;-64
2022/09/13 08:08:06;;;;;;;7.60;2.50;;;;;;;;;;5047163;28;20048;-65
2022/09/13 08:10:32;;;;;;;6.55;2.40;;;;;;;;;;5049251;28;20053;-65
2022/09/13 08:12:58;;;;;;;3.35;1.90;;;;;;;;;;5048699;28;20045;-65
2022/09/13 08:15:24;;;;;;;7.45;2.40;;;;;;;;;;5052043;28;20029;-64
2022/09/13 08:17:50;;;;;;;6.25;2.33;;;;;;;;;;5046979;28;20452;-64
2022/09/13 08:20:16;;;;;;;3.38;1.70;;;;;;;;;;5040525;28;20076;-65
2022/09/13 08:22:42;;;;;;;7.30;2.47;;;;;;;;;;5051615;28;20091;-64
2022/09/13 08:25:09;;;;;;;7.97;1.90;;;;;;;;;;5050145;28;20037;-64
2022/09/13 08:27:35;;;;;;;4.55;1.40;;;;;;;;;;5044213;28;20045;-65
2022/09/13 08:30:01;;;;;;;6.55;1.50;;;;;;;;;;5048751;28;20055;-64
2022/09/13 08:32:27;;;;;;;4.53;1.40;;;;;;;;;;5040683;28;20085;-64
2022/09/13 08:34:53;;;;;;;7.13;1.60;;;;;;;;;;5040105;28;20083;-65
2022/09/13 08:37:19;;;;;;;4.72;1.35;;;;;;;;;;5045407;28;20403;-65
2022/09/13 08:39:45;;;;;;;3.13;1.10;;;;;;;;;;5047233;28;20037;-65
2022/09/13 08:42:18;;;;;;;5.50;1.30;;;;;;;;;;5051128;28;20119;-65
2022/09/13 08:44:47;;;;;;;5.03;1.30;;;;;;;;;;5052384;28;20120;-64
2022/09/13 08:47:32;;;;;;;4.05;1.10;;;;;;;;;;5043288;28;20067;-64
2022/09/13 08:50:09;;;;;;;1.77;1.02;;;;;;;;;;5047653;28;20040;-64
2022/09/13 08:52:43;;;;;;;4.85;1.30;;;;;;;;;;5046924;28;20041;-64
2022/09/13 08:55:19;;;;;;;7.53;1.30;;;;;;;;;;5042447;28;20044;-64
2022/09/13 08:57:48;;;;;;;5.63;1.38;;;;;;;;;;5049555;28;20037;-64
2022/09/13 09:00:17;;;;;;;4.07;1.33;;;;;;;;;;5050985;28;20120;-64
2022/09/13 09:03:02;;;;;;;4.57;1.02;;;;;;;;;;5051942;28;20060;-65
2022/09/13 09:05:29;;;;;;;6.28;1.30;;;;;;;;;;5051791;28;20103;-64
2022/09/13 09:08:01;;;;;;;5.20;1.30;;;;;;;;;;5050052;28;20063;-64
2022/09/13 09:10:32;;;;;;;3.30;0.95;;;;;;;;;;5039342;28;20102;-65
2022/09/13 09:13:04;;;;;;;4.22;1.10;;;;;;;;;;5051656;28;20037;-64
2022/09/13 09:15:34;;;;;;;6.13;1.30;;;;;;;;;;5050771;28;20041;-65
2022/09/13 09:18:06;;;;;;;4.88;1.08;;;;;;;;;;5045831;28;20037;-64
2022/09/13 09:20:49;;;;;;;3.13;1.20;;;;;;;;;;5043578;28;20041;-64
2022/09/13 09:23:19;;;;;;;4.63;1.02;;;;;;;;;;5051406;28;20439;-65
2022/09/13 09:25:46;;;;;;;3.92;1.10;;;;;;;;;;5047875;28;20078;-65
2022/09/13 09:28:13;;;;;;;3.63;1.10;;;;;;;;;;5044389;28;20041;-65
2022/09/13 09:30:59;;;;;;;3.75;1.20;;;;;;;;;;5034818;28;20041;-64
2022/09/13 09:33:28;;;;;;;4.05;1.08;;;;;;;;;;5042413;28;20136;-64
2022/09/13 09:36:05;;;;;;;3.55;0.90;;;;;;;;;;5044953;28;20033;-65
2022/09/13 09:38:31;;;;;;;2.08;0.77;;;;;;;;;;5059183;28;20068;-65
2022/09/13 09:41:24;;;;;;;3.22;1.10;;;;;;;;;;5041142;28;20064;-65
2022/09/13 09:44:19;;;;;;;3.97;0.98;;;;;;;;;;5041181;28;20045;-65
2022/09/13 09:46:48;;;;;;;2.42;1.00;;;;;;;;;;5033578;28;20060;-65
2022/09/13 09:52:14;;;;;;;2.35;0.88;;;;;;;;;;5043073;28;20045;-64
2022/09/13 09:54:40;;;;;;;2.05;0.75;;;;;;;;;;5045867;28;20151;-64
2022/09/13 09:57:07;;;;;;;1.40;0.60;;;;;;;;;;5050711;28;20045;-64
2022/09/13 09:59:33;;;;;;;1.88;0.70;;;;;;;;;;5036575;28;20483;-65
2022/09/13 10:02:03;;;;;;;5.68;0.90;;;;;;;;;;5043966;28;20068;-65
2022/09/13 10:04:30;;;;;;;2.78;0.80;;;;;;;;;;5044132;28;20048;-65
2022/09/13 10:07:15;;;;;;;3.47;0.80;;;;;;;;;;5048525;28;20033;-65
2022/09/13 10:09:51;;;;;;;3.38;0.63;;;;;;;;;;5043225;28;20036;-65
2022/09/13 10:12:25;;;;;;;4.07;0.80;;;;;;;;;;5050845;28;20040;-65
2022/09/13 10:14:57;;;;;;;3.47;0.73;;;;;;;;;;5047481;28;20049;-65
2022/09/13 10:17:25;;;;;;;1.95;0.60;;;;;;;;;;5048203;28;20528;-64
2022/09/13 10:19:52;;;;;;;3.00;0.93;;;;;;;;;;5047899;28;20068;-65
2022/09/13 10:22:19;;;;;;;2.25;0.65;;;;;;;;;;5046563;28;20123;-65
2022/09/13 10:24:45;;;;;;;2.80;0.60;;;;;;;;;;5049057;28;20045;-65
2022/09/13 10:27:34;;;;;;;4.05;0.50;;;;;;;;;;5043601;28;20069;-65
2022/09/13 10:30:02;;;;;;;2.03;0.50;;;;;;;;;;5046246;28;20053;-65
2022/09/13 10:32:29;;;;;;;3.13;0.80;;;;;;;;;;5045090;28;20057;-65
2022/09/13 10:34:55;;;;;;;4.22;0.77;;;;;;;;;;5039031;28;20204;-65
2022/09/13 10:37:27;;;;;;;2.42;0.60;;;;;;;;;;5042483;28;20038;-65
2022/09/13 10:40:01;;;;;;;2.80;0.60;;;;;;;;;;5048507;28;20535;-65
2022/09/13 10:42:29;;;;;;;4.07;1.02;;;;;;;;;;5049460;28;20129;-65
2022/09/13 10:45:03;;;;;;;2.30;0.55;;;;;;;;;;5039250;28;20441;-65
2022/09/13 10:47:46;;;;;;;6.40;0.70;;;;;;;;;;5043111;28;20045;-65
2022/09/13 10:50:12;;;;;;;6.72;0.60;;;;;;;;;;5045847;28;20521;-65
2022/09/13 10:52:43;;;;;;;2.28;0.63;;;;;;;;;;5041597;28;20087;-65
2022/09/13 10:55:18;;;;;;;2.83;0.50;;;;;;;;;;5050561;28;20037;-65
2022/09/13 10:57:47;;;;;;;2.60;0.60;;;;;;;;;;5044015;28;20053;-65
2022/09/13 11:00:16;;;;;;;1.45;0.50;;;;;;;;;;5083744;22;20044;-66
2022/09/13 11:02:57;;;;;;;5.95;0.70;;;;;;;;;;5070830;28;20044;-66
2022/09/13 11:05:33;;;;;;;1.95;0.40;;;;;;;;;;5062633;28;20140;-66
2022/09/13 11:08:17;;;;;;;2.00;0.50;;;;;;;;;;5068085;28;20148;-66
2022/09/13 11:10:50;;;;;;;3.45;0.82;;;;;;;;;;5050132;28;20044;-65
2022/09/13 11:13:33;;;;;;;1.25;0.43;;;;;;;;;;5051625;28;20123;-66
2022/09/13 11:16:14;;;;;;;4.95;0.75;;;;;;;;;;5047273;28;20445;-66
2022/09/13 11:18:50;;;;;;;1.90;0.70;;;;;;;;;;5050889;28;20045;-67
2022/09/13 11:21:16;;;;;;;3.78;0.68;;;;;;;;;;5053385;28;20052;-66
2022/09/13 11:23:42;;;;;;;2.25;0.57;;;;;;;;;;5049062;28;20112;-66
2022/09/13 11:26:08;;;;;;;5.28;0.60;;;;;;;;;;5052694;28;20033;-66
2022/09/13 11:28:40;;;;;;;3.42;0.65;;;;;;;;;;5050762;28;20041;-66
2022/09/13 11:31:06;;;;;;;6.03;0.80;;;;;;;;;;5053250;28;20052;-66
2022/09/13 11:33:48;;;;;;;3.88;0.73;;;;;;;;;;5050262;28;20041;-66
2022/09/13 11:36:32;;;;;;;4.45;0.80;;;;;;;;;;5049634;28;20033;-66
2022/09/13 11:39:18;;;;;;;8.57;1.02;;;;;;;;;;5050146;28;20394;-66
2022/09/13 11:41:44;;;;;;;4.55;0.60;;;;;;;;;;5043945;28;20049;-66
2022/09/13 11:44:29;;;;;;;4.32;0.60;;;;;;;;;;5052761;28;20033;-66
2022/09/13 11:47:00;;;;;;;3.70;0.60;;;;;;;;;;5050161;28;20036;-66
2022/09/13 11:49:45;;;;;;;3.40;0.65;;;;;;;;;;5040398;28;20414;-66
2022/09/13 11:52:13;;;;;;;3.20;0.70;;;;;;;;;;5050073;28;20084;-66
2022/09/13 11:54:48;;;;;;;7.82;0.65;;;;;;;;;;5039818;28;20041;-65
2022/09/13 11:57:17;;;;;;;2.72;0.60;;;;;;;;;;5048156;28;20047;-66
2022/09/13 12:00:04;;;;;;;2.78;0.45;;;;;;;;;;5052369;28;20040;-66
2022/09/13 12:02:33;;;;;;;2.75;0.50;;;;;;;;;;5042511;28;20471;-65
2022/09/13 12:05:14;;;;;;;3.70;0.73;;;;;;;;;;5044594;28;20029;-65
2022/09/13 12:07:49;;;;;;;2.75;0.70;;;;;;;;;;5044310;28;20037;-65
2022/09/13 12:10:30;;;;;;;3.80;0.70;;;;;;;;;;5049299;28;20030;-65
2022/09/13 12:12:58;;;;;;;3.60;0.70;;;;;;;;;;5047131;28;20043;-66
2022/09/13 12:15:29;;;;;;;2.67;0.57;;;;;;;;;;5039463;28;20028;-66
2022/09/13 12:17:58;;;;;;;1.80;0.60;;;;;;;;;;5047208;28;20395;-66
2022/09/13 12:20:24;;;;;;;3.67;0.50;;;;;;;;;;5051033;28;20036;-66
2022/09/13 12:22:52;;;;;;;5.00;0.60;;;;;;;;;;5050925;28;20523;-66
2022/09/13 12:25:23;;;;;;;4.07;0.60;;;;;;;;;;5044967;28;20041;-66
2022/09/13 12:27:56;;;;;;;3.22;0.73;;;;;;;;;;5051121;28;20040;-66
2022/09/13 12:30:23;;;;;;;2.47;0.65;;;;;;;;;;5043380;28;20128;-65
2022/09/13 12:32:50;;;;;;;1.35;0.50;;;;;;;;;;5049872;28;20083;-66
2022/09/13 12:35:28;;;;;;;4.10;0.50;;;;;;;;;;5052146;28;20454;-66
2022/09/13 12:38:15;;;;;;;1.90;0.57;;;;;;;;;;5044790;28;20449;-65
2022/09/13 12:40:44;;;;;;;2.25;0.52;;;;;;;;;;5044010;28;20056;-66
2022/09/13 12:43:13;;;;;;;2.00;0.40;;;;;;;;;;5049442;28;20080;-65
2022/09/13 12:45:42;;;;;;;2.65;0.47;;;;;;;;;;5048101;28;20055;-66
2022/09/13 12:48:24;;;;;;;5.70;0.70;;;;;;;;;;5046296;28;20077;-66
2022/09/13 12:51:05;;;;;;;3.33;0.70;;;;;;;;;;5051909;28;20045;-66
2022/09/13 12:53:31;;;;;;;3.78;0.57;;;;;;;;;;5038930;28;20045;-66
2022/09/13 12:55:57;;;;;;;2.35;0.55;;;;;;;;;;5046649;28;20128;-66
2022/09/13 12:58:24;;;;;;;1.90;0.57;;;;;;;;;;5048959;28;20711;-66
2022/09/13 13:01:08;;;;;;;5.30;0.68;;;;;;;;;;5051038;28;20055;-66
2022/09/13 13:03:36;;;;;;;3.75;0.82;;;;;;;;;;5049481;28;20080;-66
2022/09/13 13:06:29;;;;;;;3.38;0.75;;;;;;;;;;5051920;28;20044;-66
2022/09/13 13:08:56;;;;;;;4.57;0.80;;;;;;;;;;5048123;28;20052;-66
2022/09/13 13:11:24;;;;;;;3.60;0.75;;;;;;;;;;5042061;28;20044;-66
2022/09/13 13:13:57;;;;;;;2.75;0.47;;;;;;;;;;5050832;28;20106;-66
2022/09/13 13:16:23;;;;;;;4.40;0.80;;;;;;;;;;5049272;28;20041;-66
2022/09/13 13:18:51;;;;;;;10.18;1.90;;;;;;;;;;5050297;28;20031;-66
2022/09/13 13:21:23;;;;;;;5.35;0.85;;;;;;;;;;5048431;28;20037;-66
2022/09/13 13:24:09;;;;;;;4.22;1.00;;;;;;;;;;5048107;28;20047;-66
2022/09/13 13:26:46;;;;;;;3.83;0.90;;;;;;;;;;5041284;28;20106;-67
2022/09/13 13:29:14;;;;;;;3.45;0.65;;;;;;;;;;5044358;28;20044;-67
2022/09/13 13:31:41;;;;;;;2.92;0.52;;;;;;;;;;5050956;28;20146;-67
2022/09/13 13:34:07;;;;;;;3.33;0.60;;;;;;;;;;5046543;28;20526;-66
2022/09/13 13:36:39;;;;;;;6.47;0.93;;;;;;;;;;5048202;28;20502;-67
2022/09/13 13:39:09;;;;;;;2.53;0.70;;;;;;;;;;5045871;28;20452;-67
2022/09/13 13:41:37;;;;;;;3.08;0.57;;;;;;;;;;5044400;28;20434;-66
2022/09/13 13:44:16;;;;;;;4.40;0.80;;;;;;;;;;5035348;28;20041;-66
2022/09/13 13:46:43;;;;;;;7.55;0.77;;;;;;;;;;5042885;28;20041;-66
2022/09/13 13:49:28;;;;;;;4.95;0.60;;;;;;;;;;5046811;28;20139;-65
2022/09/13 13:52:16;;;;;;;4.28;0.70;;;;;;;;;;5049272;28;20040;-67
2022/09/13 13:57:20;;;;;;;2.78;0.65;;;;;;;;;;5044984;28;20038;-66
2022/09/13 13:59:47;;;;;;;2.25;0.60;;;;;;;;;;5049355;28;20045;-67
2022/09/13 14:02:14;;;;;;;2.83;0.80;;;;;;;;;;5046718;28;20048;-65
2022/09/13 14:04:48;;;;;;;2.10;0.70;;;;;;;;;;5047672;28;21725;-66
2022/09/13 14:07:38;;;;;;;2.80;0.52;;;;;;;;;;5045816;28;20041;-68
2022/09/13 14:10:04;;;;;;;3.33;0.70;;;;;;;;;;5046381;28;20044;-66
2022/09/13 14:12:54;;;;;;;1.48;0.40;;;;;;;;;;5048257;28;20075;-66
2022/09/13 14:15:34;;;;;;;4.22;0.55;;;;;;;;;;5048739;28;20039;-67
2022/09/13 14:18:18;;;;;;;3.30;0.80;;;;;;;;;;5048752;28;20037;-66
2022/09/13 14:21:05;;;;;;;5.88;0.82;;;;;;;;;;5040147;28;20053;-66
2022/09/13 14:23:32;;;;;;;4.32;0.93;;;;;;;;;;5045697;28;20045;-66
2022/09/13 14:25:59;;;;;;;3.85;0.82;;;;;;;;;;5049097;28;20063;-66
2022/09/13 14:28:25;;;;;;;7.75;0.95;;;;;;;;;;5047453;28;20029;-66
2022/09/13 14:30:54;;;;;;;3.38;0.70;;;;;;;;;;5052676;28;20076;-66
2022/09/13 14:33:31;;;;;;;3.85;0.90;;;;;;;;;;5052714;28;20033;-65
2022/09/13 14:36:17;;;;;;;4.50;0.70;;;;;;;;;;5054121;28;20703;-65
2022/09/13 14:38:48;;;;;;;3.78;0.55;;;;;;;;;;5041372;28;20037;-66
2022/09/13 14:41:14;;;;;;;;;;;;;;;;;;5050543;28;20033;-66
2022/09/13 14:43:40;;;;;;;1.67;0.60;;;;;;;;;;5054433;28;19959;-66
2022/09/13 14:46:08;;;;;;;2.95;0.73;;;;;;;;;;5053777;28;20115;-66
2022/09/13 14:49:01;;;;;;;4.78;0.85;;;;;;;;;;5037635;28;20513;-66
2022/09/13 14:51:32;;;;;;;4.80;0.77;;;;;;;;;;5046548;28;20115;-67
2022/09/13 14:54:07;;;;;;;3.63;0.70;;;;;;;;;;5053495;28;20068;-65
2022/09/13 14:56:45;;;;;;;7.22;1.20;;;;;;;;;;5046105;28;20040;-66